Time,TemperatureF,DewpointF,PressureIn,WindDirection,WindDirectionDegrees,WindSpeedMPH,WindSpeedGustMPH,Humidity,HourlyPrecipIn,Conditions,Clouds,dailyrainin,SoftwareType,DateUTC
2013-06-02 00:04:00,61.8,25.0,29.75,SSE,150,0.0,-999.0,25,-99.99,,,0.00,weatherlink.com 1.10,2013-06-02 06:04:00,
2013-06-02 00:20:00,61.3,26.0,29.74,SSE,150,0.0,-999.0,26,-99.99,,,0.00,weatherlink.com 1.10,2013-06-02 06:20:00,
2013-06-02 00:35:00,59.6,30.0,29.75,SSE,150,0.0,-999.0,32,-99.99,,,0.00,weatherlink.com 1.10,2013-06-02 06:35:00,
2013-06-02 00:50:00,58.3,28.0,29.75,SSE,150,0.0,-999.0,32,-99.99,,,0.00,weatherlink.com 1.10,2013-06-02 06:50:00,
2013-06-02 01:05:00,57.2,28.0,29.75,SSE,150,0.0,-999.0,33,-99.99,,,0.00,weatherlink.com 1.10,2013-06-02 07:05:00,
2013-06-02 01:20:00,56.3,29.0,29.75,SSE,150,0.0,-999.0,36,-99.99,,,0.00,weatherlink.com 1.10,2013-06-02 07:20:00,
2013-06-02 01:35:00,55.4,29.0,29.75,SSE,150,0.0,-999.0,37,-99.99,,,0.00,weatherlink.com 1.10,2013-06-02 07:35:00,
2013-06-02 01:50:00,55.0,28.0,29.76,SSE,150,0.0,-999.0,35,-99.99,,,0.00,weatherlink.com 1.10,2013-06-02 07:50:00,
2013-06-02 02:05:00,54.7,27.0,29.75,SSE,150,0.0,-999.0,34,-99.99,,,0.00,weatherlink.com 1.10,2013-06-02 08:05:00,
2013-06-02 02:20:00,54.8,25.0,29.74,SSE,150,0.0,-999.0,32,-99.99,,,0.00,weatherlink.com 1.10,2013-06-02 08:20:00,
2013-06-02 02:35:00,55.1,27.0,29.74,SSE,150,0.0,-999.0,34,-99.99,,,0.00,weatherlink.com 1.10,2013-06-02 08:35:00,
2013-06-02 02:50:00,54.4,26.0,29.74,SSE,150,0.0,-999.0,34,-99.99,,,0.00,weatherlink.com 1.10,2013-06-02 08:50:00,
2013-06-02 03:05:00,53.8,28.0,29.74,SSE,150,0.0,-999.0,37,-99.99,,,0.00,weatherlink.com 1.10,2013-06-02 09:05:00,
2013-06-02 03:20:00,53.2,27.0,29.74,SSE,150,0.0,-999.0,37,-99.99,,,0.00,weatherlink.com 1.10,2013-06-02 09:20:00,
2013-06-02 03:35:00,53.5,27.0,29.73,SSE,150,0.0,-999.0,36,-99.99,,,0.00,weatherlink.com 1.10,2013-06-02 09:35:00,
2013-06-02 03:50:00,53.5,28.0,29.73,SSE,150,0.0,-999.0,37,-99.99,,,0.00,weatherlink.com 1.10,2013-06-02 09:50:00,
2013-06-02 04:05:00,52.3,28.0,29.74,SSE,150,0.0,-999.0,40,-99.99,,,0.00,weatherlink.com 1.10,2013-06-02 10:05:00,
2013-06-02 04:20:00,51.3,29.0,29.74,SSE,150,0.0,-999.0,42,-99.99,,,0.00,weatherlink.com 1.10,2013-06-02 10:20:00,
2013-06-02 04:35:00,50.5,29.0,29.75,SSE,150,0.0,-999.0,44,-99.99,,,0.00,weatherlink.com 1.10,2013-06-02 10:35:00,
2013-06-02 04:50:00,50.2,29.0,29.74,SSE,150,0.0,-999.0,45,-99.99,,,0.00,weatherlink.com 1.10,2013-06-02 10:50:00,
2013-06-02 05:05:00,49.9,29.0,29.74,SSE,150,0.0,-999.0,45,-99.99,,,0.00,weatherlink.com 1.10,2013-06-02 11:05:00,
2013-06-02 05:20:00,49.2,30.0,29.74,SSE,150,0.0,-999.0,47,-99.99,,,0.00,weatherlink.com 1.10,2013-06-02 11:20:00,
2013-06-02 05:35:00,49.1,29.0,29.74,SSE,150,0.0,-999.0,47,-99.99,,,0.00,weatherlink.com 1.10,2013-06-02 11:35:00,
2013-06-02 05:50:00,48.8,30.0,29.75,SSE,150,0.0,-999.0,48,-99.99,,,0.00,weatherlink.com 1.10,2013-06-02 11:50:00,
2013-06-02 06:05:00,48.9,29.0,29.75,SSE,150,0.0,-999.0,47,-99.99,,,0.00,weatherlink.com 1.10,2013-06-02 12:05:00,
2013-06-02 06:20:00,48.9,29.0,29.77,SSE,150,0.0,-999.0,46,-99.99,,,0.00,weatherlink.com 1.10,2013-06-02 12:20:00,
2013-06-02 06:35:00,49.4,29.0,29.77,SSE,150,0.0,-999.0,46,-99.99,,,0.00,weatherlink.com 1.10,2013-06-02 12:35:00,
2013-06-02 06:50:00,50.8,29.0,29.77,SSE,150,0.0,-999.0,43,-99.99,,,0.00,weatherlink.com 1.10,2013-06-02 12:50:00,
2013-06-02 07:05:00,53.5,31.0,29.75,SSE,150,0.0,-999.0,42,-99.99,,,0.00,weatherlink.com 1.10,2013-06-02 13:05:00,
2013-06-02 07:20:00,57.5,31.0,29.76,SSE,150,0.0,-999.0,37,-99.99,,,0.00,weatherlink.com 1.10,2013-06-02 13:20:00,
2013-06-02 07:35:00,60.5,30.0,29.75,SSE,150,0.0,-999.0,32,-99.99,,,0.00,weatherlink.com 1.10,2013-06-02 13:35:00,
2013-06-02 07:50:00,62.9,30.0,29.74,SSE,150,0.0,-999.0,29,-99.99,,,0.00,weatherlink.com 1.10,2013-06-02 13:50:00,
2013-06-02 08:05:00,65.3,31.0,29.73,SSE,150,0.0,-999.0,28,-99.99,,,0.00,weatherlink.com 1.10,2013-06-02 14:05:00,
2013-06-02 08:20:00,66.6,29.0,29.75,SSE,150,0.0,-999.0,24,-99.99,,,0.00,weatherlink.com 1.10,2013-06-02 14:20:00,
2013-06-02 08:35:00,67.4,27.0,29.74,SSE,150,0.0,-999.0,22,-99.99,,,0.00,weatherlink.com 1.10,2013-06-02 14:35:00,
2013-06-02 08:50:00,67.4,27.0,29.74,SW,236,0.0,-999.0,22,-99.99,,,0.00,weatherlink.com 1.10,2013-06-02 14:50:00,
2013-06-02 09:05:00,69.6,28.0,29.73,SW,236,0.0,-999.0,21,-99.99,,,0.00,weatherlink.com 1.10,2013-06-02 15:05:00,
2013-06-02 09:20:00,69.9,27.0,29.74,SW,236,0.0,-999.0,20,-99.99,,,0.00,weatherlink.com 1.10,2013-06-02 15:20:00,
2013-06-02 09:36:00,71.6,27.0,29.73,SW,236,0.0,-999.0,19,-99.99,,,0.00,weatherlink.com 1.10,2013-06-02 15:36:00,
2013-06-02 09:51:00,-999.0,-99.9,29.72,North,-999,-999.0,-999.0,-999,-99.99,,,0.00,weatherlink.com 1.10,2013-06-02 15:51:00,
2013-06-02 10:06:00,-999.0,-99.9,29.72,North,-999,-999.0,-999.0,-999,-99.99,,,0.00,weatherlink.com 1.10,2013-06-02 16:06:00,
2013-06-02 10:21:00,-999.0,-99.9,29.72,North,-999,-999.0,-999.0,-999,-99.99,,,0.00,weatherlink.com 1.10,2013-06-02 16:21:00,
2013-06-02 10:36:00,-999.0,-99.9,29.71,North,-999,-999.0,-999.0,-999,-99.99,,,0.00,weatherlink.com 1.10,2013-06-02 16:36:00,
2013-06-02 10:51:00,-999.0,-99.9,29.71,North,-999,-999.0,-999.0,-999,-99.99,,,0.00,weatherlink.com 1.10,2013-06-02 16:51:00,
2013-06-02 11:06:00,78.3,27.0,29.66,West,259,0.0,-999.0,15,-99.99,,,0.00,weatherlink.com 1.10,2013-06-02 17:06:00,
2013-06-02 11:21:00,80.9,26.0,29.66,WSW,243,2.0,-999.0,13,-99.99,,,0.00,weatherlink.com 1.10,2013-06-02 17:21:00,
2013-06-02 11:36:00,81.6,24.0,29.65,WNW,295,1.0,-999.0,12,-99.99,,,0.00,weatherlink.com 1.10,2013-06-02 17:36:00,
2013-06-02 11:51:00,82.6,25.0,29.64,SW,227,1.0,-999.0,12,-99.99,,,0.00,weatherlink.com 1.10,2013-06-02 17:51:00,
2013-06-02 12:06:00,83.0,25.0,29.63,WSW,252,0.0,-999.0,12,-99.99,,,0.00,weatherlink.com 1.10,2013-06-02 18:06:00,
2013-06-02 12:21:00,85.1,23.0,29.63,North,5,1.0,-999.0,10,-99.99,,,0.00,weatherlink.com 1.10,2013-06-02 18:21:00,
2013-06-02 12:36:00,86.7,24.0,29.62,North,355,0.0,-999.0,10,-99.99,,,0.00,weatherlink.com 1.10,2013-06-02 18:36:00,
2013-06-02 12:51:00,88.0,25.0,29.60,NNE,14,0.0,-999.0,10,-99.99,,,0.00,weatherlink.com 1.10,2013-06-02 18:51:00,
2013-06-02 13:06:00,88.2,22.0,29.59,SE,124,0.0,-999.0,9,-99.99,,,0.00,weatherlink.com 1.10,2013-06-02 19:06:00,
2013-06-02 13:21:00,89.7,21.0,29.59,West,275,0.0,-999.0,8,-99.99,,,0.00,weatherlink.com 1.10,2013-06-02 19:21:00,
2013-06-02 13:36:00,90.3,21.0,29.57,North,355,2.0,-999.0,8,-99.99,,,0.00,weatherlink.com 1.10,2013-06-02 19:36:00,
2013-06-02 13:51:00,90.3,21.0,29.57,NE,38,1.0,-999.0,8,-99.99,,,0.00,weatherlink.com 1.10,2013-06-02 19:51:00,
2013-06-02 14:06:00,92.1,23.0,29.56,SSE,154,3.0,-999.0,8,-99.99,,,0.00,weatherlink.com 1.10,2013-06-02 20:06:00,
2013-06-02 14:21:00,92.3,16.0,29.54,SSW,211,1.0,-999.0,6,-99.99,,,0.00,weatherlink.com 1.10,2013-06-02 20:21:00,
2013-06-02 14:36:00,93.2,17.0,29.54,SW,226,3.0,-999.0,6,-99.99,,,0.00,weatherlink.com 1.10,2013-06-02 20:36:00,
2013-06-02 14:51:00,92.5,16.0,29.54,South,190,3.0,-999.0,6,-99.99,,,0.00,weatherlink.com 1.10,2013-06-02 20:51:00,
2013-06-02 15:06:00,92.5,16.0,29.52,West,261,6.0,-999.0,6,-99.99,,,0.00,weatherlink.com 1.10,2013-06-02 21:06:00,
2013-06-02 15:21:00,92.9,17.0,29.53,SW,236,6.0,-999.0,6,-99.99,,,0.00,weatherlink.com 1.10,2013-06-02 21:21:00,
2013-06-02 15:36:00,92.1,16.0,29.51,SW,224,3.0,-999.0,6,-99.99,,,0.00,weatherlink.com 1.10,2013-06-02 21:36:00,
2013-06-02 15:52:00,91.2,19.0,29.52,SSW,209,2.0,-999.0,7,-99.99,,,0.00,weatherlink.com 1.10,2013-06-02 21:52:00,
2013-06-02 16:07:00,91.6,19.0,29.51,WSW,243,1.0,-999.0,7,-99.99,,,0.00,weatherlink.com 1.10,2013-06-02 22:07:00,
2013-06-02 16:22:00,91.6,19.0,29.51,WNW,288,2.0,-999.0,7,-99.99,,,0.00,weatherlink.com 1.10,2013-06-02 22:22:00,
2013-06-02 16:37:00,91.2,19.0,29.51,SW,227,3.0,-999.0,7,-99.99,,,0.00,weatherlink.com 1.10,2013-06-02 22:37:00,
2013-06-02 16:52:00,90.7,18.0,29.50,South,190,2.0,-999.0,7,-99.99,,,0.00,weatherlink.com 1.10,2013-06-02 22:52:00,
2013-06-02 17:07:00,90.5,18.0,29.50,SW,234,2.0,-999.0,7,-99.99,,,0.00,weatherlink.com 1.10,2013-06-02 23:07:00,
2013-06-02 17:22:00,91.2,19.0,29.50,SW,217,2.0,-999.0,7,-99.99,,,0.00,weatherlink.com 1.10,2013-06-02 23:22:00,
2013-06-02 17:37:00,91.4,22.0,29.48,WNW,291,1.0,-999.0,8,-99.99,,,0.00,weatherlink.com 1.10,2013-06-02 23:37:00,
2013-06-02 17:52:00,91.0,25.0,29.48,SSW,212,0.0,-999.0,9,-99.99,,,0.00,weatherlink.com 1.10,2013-06-02 23:52:00,
2013-06-02 18:07:00,91.2,22.0,29.47,WNW,300,0.0,-999.0,8,-99.99,,,0.00,weatherlink.com 1.10,2013-06-03 00:07:00,
2013-06-02 18:22:00,92.7,20.0,29.45,WSW,248,3.0,-999.0,7,-99.99,,,0.00,weatherlink.com 1.10,2013-06-03 00:22:00,
2013-06-02 18:37:00,93.6,24.0,29.44,WSW,255,2.0,-999.0,8,-99.99,,,0.00,weatherlink.com 1.10,2013-06-03 00:37:00,
2013-06-02 18:52:00,92.7,20.0,29.43,ENE,69,3.0,-999.0,7,-99.99,,,0.00,weatherlink.com 1.10,2013-06-03 00:52:00,
2013-06-02 19:07:00,92.7,16.0,29.42,SSW,212,5.0,-999.0,6,-99.99,,,0.00,weatherlink.com 1.10,2013-06-03 01:07:00,
2013-06-02 19:22:00,92.3,16.0,29.37,NNE,19,3.0,-999.0,6,-99.99,,,0.00,weatherlink.com 1.10,2013-06-03 01:22:00,
2013-06-02 19:37:00,90.7,15.0,29.38,SSE,152,0.0,-999.0,6,-99.99,,,0.00,weatherlink.com 1.10,2013-06-03 01:37:00,
2013-06-02 19:52:00,89.9,14.0,29.39,West,271,1.0,-999.0,6,-99.99,,,0.00,weatherlink.com 1.10,2013-06-03 01:52:00,
2013-06-02 20:07:00,89.3,14.0,29.39,SW,214,0.0,-999.0,6,-99.99,,,0.00,weatherlink.com 1.10,2013-06-03 02:07:00,
2013-06-02 20:22:00,88.8,17.0,29.37,SSW,192,4.0,-999.0,7,-99.99,,,0.00,weatherlink.com 1.10,2013-06-03 02:22:00,
2013-06-02 20:37:00,87.8,16.0,29.37,West,280,0.0,-999.0,7,-99.99,,,0.00,weatherlink.com 1.10,2013-06-03 02:37:00,
2013-06-02 20:52:00,87.2,19.0,29.38,WSW,242,4.0,-999.0,8,-99.99,,,0.00,weatherlink.com 1.10,2013-06-03 02:52:00,
2013-06-02 21:07:00,88.0,16.0,29.38,SSE,153,3.0,-999.0,7,-99.99,,,0.00,weatherlink.com 1.10,2013-06-03 03:07:00,
2013-06-02 21:22:00,85.3,23.0,29.33,SW,232,0.0,-999.0,10,-99.99,,,0.00,weatherlink.com 1.10,2013-06-03 03:22:00,
2013-06-02 21:37:00,81.2,24.0,29.36,SW,232,0.0,-999.0,12,-99.99,,,0.00,weatherlink.com 1.10,2013-06-03 03:37:00,
2013-06-02 21:52:00,78.6,24.0,29.38,SW,232,0.0,-999.0,13,-99.99,,,0.00,weatherlink.com 1.10,2013-06-03 03:52:00,
2013-06-02 22:07:00,77.7,21.0,29.39,ESE,106,0.0,-999.0,12,-99.99,,,0.00,weatherlink.com 1.10,2013-06-03 04:07:00,
2013-06-02 22:22:00,77.9,21.0,29.40,ESE,114,0.0,-999.0,12,-99.99,,,0.00,weatherlink.com 1.10,2013-06-03 04:22:00,
2013-06-02 22:37:00,77.4,21.0,29.40,East,90,0.0,-999.0,12,-99.99,,,0.00,weatherlink.com 1.10,2013-06-03 04:37:00,
2013-06-02 22:52:00,76.5,20.0,29.41,East,91,0.0,-999.0,12,-99.99,,,0.00,weatherlink.com 1.10,2013-06-03 04:52:00,
2013-06-02 23:07:00,76.3,20.0,29.40,ESE,109,1.0,-999.0,12,-99.99,,,0.00,weatherlink.com 1.10,2013-06-03 05:07:00,
2013-06-02 23:22:00,76.5,20.0,29.39,South,189,1.0,-999.0,12,-99.99,,,0.00,weatherlink.com 1.10,2013-06-03 05:22:00,
2013-06-02 23:37:00,76.7,20.0,29.38,South,169,1.0,-999.0,12,-99.99,,,0.00,weatherlink.com 1.10,2013-06-03 05:37:00,
2013-06-02 23:52:00,76.3,20.0,29.38,ESE,107,1.0,-999.0,12,-99.99,,,0.00,weatherlink.com 1.10,2013-06-03 05:52:00,